Time,TemperatureF,DewpointF,PressureIn,WindDirection,WindDirectionDegrees,WindSpeedMPH,WindSpeedGustMPH,Humidity,HourlyPrecipIn,Conditions,Clouds,dailyrainin,SoftwareType,DateUTC
2013-01-07 00:02:00,42.0,36.0,30.24,NW,320,4.0,4.0,78,0.00,,,-99.99,,2013-01-07 08:02:00,
2013-01-07 00:11:00,42.0,33.0,30.23,NW,310,3.0,5.0,71,0.00,,,-99.99,,2013-01-07 08:11:00,
2013-01-07 00:22:00,42.0,33.0,30.23,NW,310,3.0,5.0,71,0.00,,,-99.99,,2013-01-07 08:22:00,
2013-01-07 00:32:00,43.0,33.0,30.24,North,0,0.0,1.0,67,0.00,,,-99.99,,2013-01-07 08:32:00,
2013-01-07 00:42:00,43.0,33.0,30.24,North,0,0.0,4.0,67,0.00,,,-99.99,,2013-01-07 08:42:00,
2013-01-07 00:53:00,43.0,32.0,30.23,North,-999,0.0,0.0,65,0.00,,,-99.99,,2013-01-07 08:53:00,
2013-01-07 01:00:00,43.0,32.0,30.22,North,0,0.0,4.0,64,0.00,,,-99.99,,2013-01-07 09:00:00,
2013-01-07 01:02:00,43.0,32.0,30.23,North,-999,0.0,0.0,65,0.00,,,-99.99,,2013-01-07 09:02:00,
2013-01-07 01:12:00,43.0,31.0,30.22,NW,320,4.0,9.0,63,0.00,,,-99.99,,2013-01-07 09:12:00,
2013-01-07 01:22:00,43.0,32.0,30.22,North,0,0.0,4.0,64,0.00,,,-99.99,,2013-01-07 09:22:00,
2013-01-07 01:32:00,43.0,32.0,30.22,North,0,0.0,4.0,64,0.00,,,-99.99,,2013-01-07 09:32:00,
2013-01-07 01:42:00,43.0,32.0,30.22,North,0,0.0,4.0,64,0.00,,,-99.99,,2013-01-07 09:42:00,
2013-01-07 01:52:00,43.0,32.0,30.22,North,0,0.0,4.0,64,0.00,,,-99.99,,2013-01-07 09:52:00,
2013-01-07 02:12:00,42.0,30.0,30.23,North,0,0.0,3.0,62,0.00,,,-99.99,,2013-01-07 10:12:00,
2013-01-07 02:22:00,42.0,30.0,30.23,North,0,0.0,3.0,62,0.00,,,-99.99,,2013-01-07 10:22:00,
2013-01-07 02:32:00,42.0,30.0,30.23,North,0,0.0,2.0,61,0.00,,,-99.99,,2013-01-07 10:32:00,
2013-01-07 02:42:00,42.0,30.0,30.23,North,0,0.0,2.0,61,0.00,,,-99.99,,2013-01-07 10:42:00,
2013-01-07 02:52:00,42.0,30.0,30.24,North,0,0.0,4.0,62,0.00,,,-99.99,,2013-01-07 10:52:00,
2013-01-07 03:02:00,42.0,31.0,30.24,West,280,3.0,6.0,64,0.00,,,-99.99,,2013-01-07 11:02:00,
2013-01-07 03:12:00,42.0,30.0,30.24,North,0,0.0,6.0,62,0.00,,,-99.99,,2013-01-07 11:12:00,
2013-01-07 03:22:00,42.0,30.0,30.24,North,0,0.0,6.0,62,0.00,,,-99.99,,2013-01-07 11:22:00,
2013-01-07 03:32:00,42.0,29.0,30.24,West,280,2.0,6.0,60,0.00,,,-99.99,,2013-01-07 11:32:00,
2013-01-07 03:43:00,41.0,29.0,30.24,West,270,4.0,12.0,61,0.00,,,-99.99,,2013-01-07 11:43:00,
2013-01-07 03:53:00,41.0,29.0,30.24,West,270,4.0,12.0,61,0.00,,,-99.99,,2013-01-07 11:53:00,
2013-01-07 04:02:00,41.0,29.0,30.25,West,270,3.0,3.0,61,0.00,,,-99.99,,2013-01-07 12:02:00,
2013-01-07 04:12:00,42.0,29.0,30.26,West,270,2.0,7.0,59,0.00,,,-99.99,,2013-01-07 12:12:00,
2013-01-07 04:22:00,42.0,29.0,30.26,West,270,2.0,7.0,59,0.00,,,-99.99,,2013-01-07 12:22:00,
2013-01-07 04:32:00,42.0,27.0,30.26,North,0,0.0,2.0,55,0.00,,,-99.99,,2013-01-07 12:32:00,
2013-01-07 04:43:00,43.0,27.0,30.26,North,0,0.0,7.0,52,0.00,,,-99.99,,2013-01-07 12:43:00,
2013-01-07 04:53:00,43.0,27.0,30.26,North,0,0.0,7.0,52,0.00,,,-99.99,,2013-01-07 12:53:00,
2013-01-07 05:02:00,43.0,26.0,30.26,WNW,290,3.0,6.0,51,0.00,,,-99.99,,2013-01-07 13:02:00,
2013-01-07 05:12:00,43.0,26.0,30.27,WNW,290,4.0,8.0,50,0.00,,,-99.99,,2013-01-07 13:12:00,
2013-01-07 05:22:00,43.0,26.0,30.27,WNW,290,4.0,8.0,50,0.00,,,-99.99,,2013-01-07 13:22:00,
2013-01-07 05:32:00,43.0,27.0,30.27,WNW,290,5.0,6.0,52,0.00,,,-99.99,,2013-01-07 13:32:00,
2013-01-07 05:42:00,42.0,28.0,30.28,WNW,300,3.0,15.0,58,0.00,,,-99.99,,2013-01-07 13:42:00,
2013-01-07 05:53:00,42.0,28.0,30.28,WNW,300,3.0,15.0,58,0.00,,,-99.99,,2013-01-07 13:53:00,
2013-01-07 06:03:00,42.0,28.0,30.28,WNW,300,3.0,15.0,58,0.00,,,-99.99,,2013-01-07 14:03:00,
2013-01-07 06:12:00,42.0,28.0,30.28,WNW,300,3.0,15.0,58,0.00,,,-99.99,,2013-01-07 14:12:00,
2013-01-07 07:03:00,43.0,25.0,30.31,North,0,0.0,5.0,49,0.00,,,-99.99,,2013-01-07 15:03:00,
2013-01-07 07:12:00,43.0,25.0,30.31,North,0,0.0,5.0,49,0.00,,,-99.99,,2013-01-07 15:12:00,
2013-01-07 07:22:00,43.0,22.0,30.32,North,0,0.0,5.0,43,0.00,,,-99.99,,2013-01-07 15:22:00,
2013-01-07 07:33:00,43.0,22.0,30.33,North,0,0.0,4.0,42,0.00,,,-99.99,,2013-01-07 15:33:00,
2013-01-07 07:42:00,44.0,26.0,30.33,North,0,0.0,4.0,48,0.00,,,-99.99,,2013-01-07 15:42:00,
2013-01-07 07:53:00,43.0,26.0,30.34,North,0,0.0,4.0,51,0.00,,,-99.99,,2013-01-07 15:53:00,
2013-01-07 08:02:00,43.0,26.0,30.34,North,0,0.0,4.0,51,0.00,,,-99.99,,2013-01-07 16:02:00,
2013-01-07 08:12:00,43.0,24.0,30.33,North,0,0.0,4.0,46,0.00,,,-99.99,,2013-01-07 16:12:00,
2013-01-07 08:22:00,43.0,24.0,30.33,North,0,0.0,4.0,46,0.00,,,-99.99,,2013-01-07 16:22:00,
2013-01-07 08:33:00,43.0,24.0,30.33,North,0,0.0,4.0,46,0.00,,,-99.99,,2013-01-07 16:33:00,
2013-01-07 08:42:00,44.0,26.0,30.33,North,0,0.0,2.0,48,0.00,,,-99.99,,2013-01-07 16:42:00,
2013-01-07 08:53:00,44.0,26.0,30.33,North,0,0.0,2.0,48,0.00,,,-99.99,,2013-01-07 16:53:00,
2013-01-07 09:02:00,44.0,25.0,30.33,WSW,250,4.0,6.0,46,0.00,,,-99.99,,2013-01-07 17:02:00,
2013-01-07 09:12:00,46.0,25.0,30.34,WSW,240,4.0,10.0,44,0.00,,,-99.99,,2013-01-07 17:12:00,
2013-01-07 09:22:00,46.0,25.0,30.34,WSW,240,4.0,10.0,44,0.00,,,-99.99,,2013-01-07 17:22:00,
2013-01-07 09:32:00,46.0,25.0,30.34,WSW,240,4.0,10.0,44,0.00,,,-99.99,,2013-01-07 17:32:00,
2013-01-07 09:42:00,46.0,28.0,30.34,SW,230,1.0,7.0,49,0.00,,,-99.99,,2013-01-07 17:42:00,
2013-01-07 09:53:00,46.0,28.0,30.34,SW,230,1.0,7.0,49,0.00,,,-99.99,,2013-01-07 17:53:00,
2013-01-07 10:02:00,46.0,30.0,30.36,SW,230,1.0,1.0,53,0.00,,,-99.99,,2013-01-07 18:02:00,
2013-01-07 10:12:00,46.0,30.0,30.36,North,0,0.0,8.0,53,0.00,,,-99.99,,2013-01-07 18:12:00,
2013-01-07 10:23:00,46.0,30.0,30.36,North,0,0.0,8.0,53,0.00,,,-99.99,,2013-01-07 18:23:00,
2013-01-07 10:32:00,46.0,30.0,30.36,North,0,0.0,8.0,53,0.00,,,-99.99,,2013-01-07 18:32:00,
2013-01-07 10:42:00,47.0,28.0,30.36,West,260,4.0,6.0,48,0.00,,,-99.99,,2013-01-07 18:42:00,
2013-01-07 10:53:00,47.0,28.0,30.36,West,260,4.0,6.0,48,0.00,,,-99.99,,2013-01-07 18:53:00,
2013-01-07 11:03:00,47.0,27.0,30.35,West,260,1.0,2.0,45,0.00,,,-99.99,,2013-01-07 19:03:00,
2013-01-07 11:12:00,48.0,28.0,30.35,West,270,2.0,6.0,46,0.00,,,-99.99,,2013-01-07 19:12:00,
2013-01-07 11:22:00,48.0,28.0,30.35,West,270,2.0,6.0,46,0.00,,,-99.99,,2013-01-07 19:22:00,
2013-01-07 11:33:00,49.0,29.0,30.34,West,260,3.0,8.0,46,0.00,,,-99.99,,2013-01-07 19:33:00,
2013-01-07 11:42:00,50.0,29.0,30.33,West,260,1.0,8.0,44,0.00,,,-99.99,,2013-01-07 19:42:00,
2013-01-07 11:53:00,50.0,29.0,30.33,West,260,1.0,8.0,44,0.00,,,-99.99,,2013-01-07 19:53:00,
2013-01-07 12:02:00,51.0,33.0,30.31,WSW,250,2.0,4.0,50,0.00,,,-99.99,,2013-01-07 20:02:00,
2013-01-07 12:12:00,52.0,30.0,30.30,North,0,0.0,6.0,42,0.00,,,-99.99,,2013-01-07 20:12:00,
2013-01-07 12:22:00,52.0,30.0,30.30,North,0,0.0,6.0,42,0.00,,,-99.99,,2013-01-07 20:22:00,
2013-01-07 12:33:00,52.0,30.0,30.30,North,0,0.0,6.0,42,0.00,,,-99.99,,2013-01-07 20:33:00,
2013-01-07 12:42:00,53.0,31.0,30.28,North,0,0.0,4.0,42,0.00,,,-99.99,,2013-01-07 20:42:00,
2013-01-07 12:53:00,53.0,31.0,30.28,North,0,0.0,4.0,42,0.00,,,-99.99,,2013-01-07 20:53:00,
2013-01-07 13:02:00,53.0,31.0,30.27,North,0,0.0,1.0,43,0.00,,,-99.99,,2013-01-07 21:02:00,
2013-01-07 13:12:00,53.0,31.0,30.27,North,0,0.0,1.0,43,0.00,,,-99.99,,2013-01-07 21:12:00,
2013-01-07 13:22:00,54.0,30.0,30.25,North,0,0.0,5.0,39,0.00,,,-99.99,,2013-01-07 21:22:00,
2013-01-07 13:32:00,55.0,36.0,30.24,North,0,0.0,1.0,48,0.00,,,-99.99,,2013-01-07 21:32:00,
2013-01-07 13:42:00,55.0,29.0,30.24,North,0,0.0,2.0,37,0.00,,,-99.99,,2013-01-07 21:42:00,
2013-01-07 13:52:00,55.0,29.0,30.24,North,0,0.0,2.0,37,0.00,,,-99.99,,2013-01-07 21:52:00,
2013-01-07 14:02:00,56.0,28.0,30.23,North,-999,0.0,0.0,34,0.00,,,-99.99,,2013-01-07 22:02:00,
2013-01-07 14:12:00,58.0,38.0,30.23,West,260,2.0,5.0,48,0.00,,,-99.99,,2013-01-07 22:12:00,
2013-01-07 14:22:00,58.0,38.0,30.23,West,260,2.0,5.0,48,0.00,,,-99.99,,2013-01-07 22:22:00,
2013-01-07 14:33:00,58.0,38.0,30.23,West,260,2.0,5.0,48,0.00,,,-99.99,,2013-01-07 22:33:00,
2013-01-07 14:42:00,59.0,37.0,30.22,North,0,0.0,3.0,44,0.00,,,-99.99,,2013-01-07 22:42:00,
2013-01-07 14:53:00,59.0,37.0,30.22,North,0,0.0,3.0,44,0.00,,,-99.99,,2013-01-07 22:53:00,
2013-01-07 15:02:00,58.0,37.0,30.21,North,-999,0.0,0.0,46,0.00,,,-99.99,,2013-01-07 23:02:00,
2013-01-07 15:12:00,59.0,40.0,30.20,North,0,0.0,2.0,50,0.00,,,-99.99,,2013-01-07 23:12:00,
2013-01-07 15:22:00,59.0,40.0,30.20,North,0,0.0,2.0,50,0.00,,,-99.99,,2013-01-07 23:22:00,
2013-01-07 15:32:00,59.0,40.0,30.20,North,0,0.0,2.0,50,0.00,,,-99.99,,2013-01-07 23:32:00,
2013-01-07 15:42:00,57.0,39.0,30.20,North,0,0.0,1.0,51,0.00,,,-99.99,,2013-01-07 23:42:00,
2013-01-07 15:53:00,57.0,39.0,30.20,North,0,0.0,1.0,51,0.00,,,-99.99,,2013-01-07 23:53:00,
2013-01-07 16:02:00,58.0,40.0,30.20,North,-999,0.0,0.0,51,0.00,,,-99.99,,2013-01-08 00:02:00,
2013-01-07 16:12:00,58.0,37.0,30.19,North,-999,0.0,0.0,45,0.00,,,-99.99,,2013-01-08 00:12:00,
2013-01-07 16:22:00,58.0,37.0,30.19,North,-999,0.0,0.0,45,0.00,,,-99.99,,2013-01-08 00:22:00,
2013-01-07 16:32:00,57.0,38.0,30.19,North,-999,0.0,0.0,48,0.00,,,-99.99,,2013-01-08 00:32:00,
2013-01-07 16:42:00,56.0,36.0,30.18,North,-999,0.0,0.0,47,0.00,,,-99.99,,2013-01-08 00:42:00,
2013-01-07 16:52:00,56.0,36.0,30.18,North,-999,0.0,0.0,47,0.00,,,-99.99,,2013-01-08 00:52:00,
2013-01-07 17:02:00,57.0,31.0,30.17,North,-999,0.0,0.0,37,0.00,,,-99.99,,2013-01-08 01:02:00,
2013-01-07 17:12:00,57.0,28.0,30.18,North,0,0.0,3.0,33,0.00,,,-99.99,,2013-01-08 01:12:00,
2013-01-07 17:22:00,57.0,28.0,30.18,North,0,0.0,3.0,33,0.00,,,-99.99,,2013-01-08 01:22:00,
2013-01-07 17:32:00,57.0,27.0,30.18,North,-999,0.0,0.0,32,0.00,,,-99.99,,2013-01-08 01:32:00,
2013-01-07 17:42:00,57.0,27.0,30.18,North,-999,0.0,0.0,32,0.00,,,-99.99,,2013-01-08 01:42:00,
2013-01-07 17:52:00,57.0,27.0,30.18,North,-999,0.0,0.0,32,0.00,,,-99.99,,2013-01-08 01:52:00,
2013-01-07 18:02:00,55.0,33.0,30.19,North,-999,0.0,0.0,43,0.00,,,-99.99,,2013-01-08 02:02:00,
2013-01-07 18:12:00,55.0,23.0,30.19,North,0,0.0,1.0,29,0.00,,,-99.99,,2013-01-08 02:12:00,
2013-01-07 18:32:00,56.0,17.0,30.19,North,-999,0.0,0.0,21,0.00,,,-99.99,,2013-01-08 02:32:00,
2013-01-07 18:42:00,57.0,20.0,30.19,North,0,0.0,3.0,23,0.00,,,-99.99,,2013-01-08 02:42:00,
2013-01-07 19:02:00,55.0,27.0,30.19,North,-999,0.0,0.0,34,0.00,,,-99.99,,2013-01-08 03:02:00,
2013-01-07 19:32:00,55.0,22.0,30.19,North,-999,0.0,0.0,27,0.00,,,-99.99,,2013-01-08 03:32:00,
2013-01-07 19:43:00,55.0,25.0,30.20,North,-999,0.0,0.0,31,0.00,,,-99.99,,2013-01-08 03:43:00,
2013-01-07 19:53:00,55.0,25.0,30.20,North,-999,0.0,0.0,31,0.00,,,-99.99,,2013-01-08 03:53:00,
2013-01-07 20:02:00,55.0,22.0,30.19,North,-999,0.0,0.0,27,0.00,,,-99.99,,2013-01-08 04:02:00,
2013-01-07 20:12:00,55.0,18.0,30.19,North,-999,0.0,0.0,23,0.00,,,-99.99,,2013-01-08 04:12:00,
2013-01-07 20:22:00,55.0,18.0,30.19,North,-999,0.0,0.0,23,0.00,,,-99.99,,2013-01-08 04:22:00,
2013-01-07 20:42:00,56.0,20.0,30.19,North,0,0.0,2.0,24,0.00,,,-99.99,,2013-01-08 04:42:00,
2013-01-07 20:52:00,56.0,20.0,30.19,North,0,0.0,2.0,24,0.00,,,-99.99,,2013-01-08 04:52:00,
2013-01-07 21:03:00,57.0,20.0,30.20,West,280,1.0,2.0,23,0.00,,,-99.99,,2013-01-08 05:03:00,
2013-01-07 21:12:00,57.0,20.0,30.20,West,280,1.0,2.0,23,0.00,,,-99.99,,2013-01-08 05:12:00,
2013-01-07 21:22:00,57.0,20.0,30.20,West,280,1.0,2.0,23,0.00,,,-99.99,,2013-01-08 05:22:00,
2013-01-07 21:33:00,57.0,19.0,30.20,WNW,300,2.0,3.0,22,0.00,,,-99.99,,2013-01-08 05:33:00,
2013-01-07 21:43:00,57.0,19.0,30.19,North,0,0.0,4.0,22,0.00,,,-99.99,,2013-01-08 05:43:00,
2013-01-07 21:53:00,57.0,19.0,30.19,North,0,0.0,4.0,22,0.00,,,-99.99,,2013-01-08 05:53:00,
2013-01-07 22:02:00,57.0,17.0,30.19,North,-999,0.0,0.0,21,0.00,,,-99.99,,2013-01-08 06:02:00,
2013-01-07 22:12:00,58.0,19.0,30.19,North,0,0.0,1.0,22,0.00,,,-99.99,,2013-01-08 06:12:00,
2013-01-07 22:22:00,58.0,19.0,30.19,North,0,0.0,1.0,22,0.00,,,-99.99,,2013-01-08 06:22:00,
2013-01-07 22:32:00,57.0,19.0,30.20,North,-999,0.0,0.0,22,0.00,,,-99.99,,2013-01-08 06:32:00,
2013-01-07 22:42:00,58.0,18.0,30.20,NNW,330,2.0,2.0,21,0.00,,,-99.99,,2013-01-08 06:42:00,
2013-01-07 22:52:00,58.0,18.0,30.20,NNW,330,2.0,2.0,21,0.00,,,-99.99,,2013-01-08 06:52:00,
2013-01-07 23:02:00,58.0,18.0,30.20,North,-999,0.0,0.0,21,0.00,,,-99.99,,2013-01-08 07:02:00,
2013-01-07 23:11:00,59.0,19.0,30.19,NNE,30,2.0,2.0,21,0.00,,,-99.99,,2013-01-08 07:11:00,
2013-01-07 23:32:00,59.0,18.0,30.19,WNW,300,2.0,3.0,20,0.00,,,-99.99,,2013-01-08 07:32:00,